createdAt,value
2018-03-24T00:03:13.155Z,17
2018-03-24T00:18:12.981Z,17.5
2018-03-24T00:38:13.199Z,19.6
2018-03-24T01:43:13.214Z,18.4
2018-03-24T01:58:13.319Z,17.4
2018-03-24T02:33:32.949Z,14.7
2018-03-24T02:48:22.763Z,15.9
2018-03-24T03:18:22.675Z,17.5
2018-03-24T03:53:23.213Z,15.5
2018-03-24T04:08:23.229Z,14.1
2018-03-24T04:58:25.118Z,17.1
2018-03-24T06:03:25.083Z,24
2018-03-24T06:38:25.074Z,16.8
2018-03-24T06:53:25.374Z,15.3
2018-03-24T07:08:25.173Z,14.6
2018-03-24T07:43:25.459Z,17.7
2018-03-24T07:58:25.292Z,33.1
2018-03-24T08:18:25.535Z,32.4
2018-03-24T08:33:25.546Z,31.9
2018-03-24T08:48:27.646Z,30.3
2018-03-24T09:03:31.014Z,29
2018-03-24T09:23:29.572Z,28.3
2018-03-24T10:13:30.590Z,20.6
2018-03-24T10:28:29.941Z,18.5
2018-03-24T10:43:30.024Z,18.8
2018-03-24T11:18:30.156Z,14.8
2018-03-24T11:48:29.913Z,16.8
2018-03-24T12:08:30.994Z,18.2
2018-03-24T12:23:28.190Z,16.7
2018-03-24T12:38:28.203Z,16.8
2018-03-24T12:53:28.470Z,16.4
2018-03-24T13:13:28.195Z,19
2018-03-24T13:28:30.066Z,19.6
2018-03-24T13:43:31.542Z,19.9
2018-03-24T14:18:30.230Z,14.2
2018-03-24T14:33:30.554Z,16.5
2018-03-24T14:53:30.317Z,18.4
2018-03-24T15:08:30.310Z,17.2
2018-03-24T15:23:32.745Z,17.3
2018-03-24T15:38:33.870Z,16.9
2018-03-24T15:58:35.198Z,15.7
2018-03-24T16:13:33.960Z,16.3
2018-03-24T16:28:30.640Z,19.4
2018-03-24T16:48:30.647Z,16.7
2018-03-24T17:18:30.681Z,15.3
2018-03-24T17:33:30.694Z,13.1
2018-03-24T17:53:30.669Z,14.4
2018-03-24T18:08:39.420Z,12.1
2018-03-24T18:23:34.830Z,13.6
2018-03-24T18:43:34.542Z,11.7
2018-03-24T18:58:34.350Z,12.1
2018-03-24T19:13:34.775Z,12.7
2018-03-24T19:28:34.703Z,13.3
2018-03-24T19:48:34.517Z,11.3
2018-03-24T20:03:34.464Z,12.7
2018-03-24T20:18:34.429Z,12.7
2018-03-24T20:38:34.577Z,12.7
2018-03-24T20:53:34.415Z,13
2018-03-24T21:08:37.125Z,13.3
2018-03-24T21:23:34.422Z,15.5
2018-03-24T21:43:34.681Z,13.9
2018-03-24T21:58:35.679Z,13.6
2018-03-24T22:13:34.549Z,13.7
2018-03-24T22:33:34.579Z,13.1
2018-03-24T22:48:36.203Z,14.1
2018-03-24T23:18:36.215Z,15.1
2018-03-24T23:53:36.405Z,14.2
